sensor_id;sensor_type;location;lat;lon;timestamp;pressure;altitude;pressure_sealevel;temperature;humidity
4528;BME280;62320;51.520;6.818;2023-07-16T00:09:58;100468.31;;;21.03;82.11
4528;BME280;62320;51.520;6.818;2023-07-16T00:20:00;100492.66;;;20.88;80.17
4528;BME280;62320;51.520;6.818;2023-07-16T00:30:02;100494.16;;;20.75;79.75
4528;BME280;62320;51.520;6.818;2023-07-16T00:40:05;100501.69;;;20.63;82.84
4528;BME280;62320;51.520;6.818;2023-07-16T00:50:09;100471.69;;;20.49;83.60
4528;BME280;62320;51.520;6.818;2023-07-16T01:00:11;100488.88;;;20.37;82.65
4528;BME280;62320;51.520;6.818;2023-07-16T01:10:13;100493.09;;;20.21;88.12
4528;BME280;62320;51.520;6.818;2023-07-16T01:20:15;100492.06;;;20.04;88.05
4528;BME280;62320;51.520;6.818;2023-07-16T01:30:18;100487.56;;;19.87;88.73
4528;BME280;62320;51.520;6.818;2023-07-16T01:40:20;100501.97;;;19.77;89.80
4528;BME280;62320;51.520;6.818;2023-07-16T01:50:22;100527.69;;;19.47;92.16
4528;BME280;62320;51.520;6.818;2023-07-16T02:00:23;100535.34;;;19.53;91.47
4528;BME280;62320;51.520;6.818;2023-07-16T02:10:24;100536.59;;;19.43;90.34
4528;BME280;62320;51.520;6.818;2023-07-16T02:20:26;100534.38;;;19.33;93.80
4528;BME280;62320;51.520;6.818;2023-07-16T02:30:27;100541.50;;;19.29;91.45
4528;BME280;62320;51.520;6.818;2023-07-16T02:40:29;100563.59;;;19.23;90.83
4528;BME280;62320;51.520;6.818;2023-07-16T02:50:34;100556.09;;;19.13;94.38
4528;BME280;62320;51.520;6.818;2023-07-16T03:00:37;100568.94;;;19.20;91.78
4528;BME280;62320;51.520;6.818;2023-07-16T03:10:38;100564.59;;;19.19;92.07
4528;BME280;62320;51.520;6.818;2023-07-16T03:20:40;100570.53;;;19.01;93.49
4528;BME280;62320;51.520;6.818;2023-07-16T03:30:46;100588.03;;;19.01;90.68
4528;BME280;62320;51.520;6.818;2023-07-16T03:40:49;100595.66;;;18.84;89.26
4528;BME280;62320;51.520;6.818;2023-07-16T03:50:51;100611.94;;;18.69;88.25
4528;BME280;62320;51.520;6.818;2023-07-16T04:00:53;100632.63;;;18.76;84.03
4528;BME280;62320;51.520;6.818;2023-07-16T04:10:54;100644.38;;;18.65;83.34
4528;BME280;62320;51.520;6.818;2023-07-16T04:20:57;100650.78;;;18.56;83.08
4528;BME280;62320;51.520;6.818;2023-07-16T04:30:59;100661.09;;;18.61;81.13
4528;BME280;62320;51.520;6.818;2023-07-16T04:41:00;100678.38;;;18.66;80.35
4528;BME280;62320;51.520;6.818;2023-07-16T04:51:02;100683.69;;;18.89;80.04
4528;BME280;62320;51.520;6.818;2023-07-16T05:01:03;100701.41;;;19.06;79.89
4528;BME280;62320;51.520;6.818;2023-07-16T05:11:05;100705.31;;;19.19;76.00
4528;BME280;62320;51.520;6.818;2023-07-16T05:21:06;100709.53;;;19.23;75.63
4528;BME280;62320;51.520;6.818;2023-07-16T05:31:08;100712.72;;;19.31;76.54
4528;BME280;62320;51.520;6.818;2023-07-16T05:41:09;100732.22;;;19.49;75.33
4528;BME280;62320;51.520;6.818;2023-07-16T05:51:11;100734.88;;;19.70;74.76
4528;BME280;62320;51.520;6.818;2023-07-16T06:01:12;100737.22;;;20.00;73.52
4528;BME280;62320;51.520;6.818;2023-07-16T06:11:14;100741.25;;;20.31;71.20
4528;BME280;62320;51.520;6.818;2023-07-16T06:21:16;100752.34;;;20.59;70.72
4528;BME280;62320;51.520;6.818;2023-07-16T06:31:17;100762.31;;;21.13;68.53
4528;BME280;62320;51.520;6.818;2023-07-16T06:41:19;100781.19;;;21.23;67.54
4528;BME280;62320;51.520;6.818;2023-07-16T06:51:20;100775.38;;;21.55;65.69
4528;BME280;62320;51.520;6.818;2023-07-16T07:01:22;100783.22;;;21.75;64.87
4528;BME280;62320;51.520;6.818;2023-07-16T07:11:24;100774.72;;;21.89;64.41
4528;BME280;62320;51.520;6.818;2023-07-16T07:21:25;100788.00;;;22.23;61.04
4528;BME280;62320;51.520;6.818;2023-07-16T07:31:27;100796.41;;;22.67;62.89
4528;BME280;62320;51.520;6.818;2023-07-16T07:41:29;100814.44;;;22.76;62.05
4528;BME280;62320;51.520;6.818;2023-07-16T07:51:30;100806.59;;;23.09;61.14
4528;BME280;62320;51.520;6.818;2023-07-16T08:01:32;100809.06;;;23.29;58.98
4528;BME280;62320;51.520;6.818;2023-07-16T08:11:33;100805.19;;;23.02;59.17
4528;BME280;62320;51.520;6.818;2023-07-16T08:21:35;100801.53;;;23.56;56.74
4528;BME280;62320;51.520;6.818;2023-07-16T08:31:37;100816.19;;;23.94;57.44
4528;BME280;62320;51.520;6.818;2023-07-16T08:41:39;100816.19;;;23.94;54.61
4528;BME280;62320;51.520;6.818;2023-07-16T08:51:40;100826.63;;;24.13;55.42
4528;BME280;62320;51.520;6.818;2023-07-16T09:01:42;100823.47;;;24.22;56.72
4528;BME280;62320;51.520;6.818;2023-07-16T09:11:48;100833.97;;;24.39;56.10
4528;BME280;62320;51.520;6.818;2023-07-16T09:21:50;100841.41;;;23.99;52.15
4528;BME280;62320;51.520;6.818;2023-07-16T09:41:54;100860.59;;;24.03;52.17
4528;BME280;62320;51.520;6.818;2023-07-16T09:52:01;100865.00;;;24.20;50.72
4528;BME280;62320;51.520;6.818;2023-07-16T10:02:04;100866.72;;;24.21;52.68
4528;BME280;62320;51.520;6.818;2023-07-16T10:12:18;100871.03;;;24.22;53.41
4528;BME280;62320;51.520;6.818;2023-07-16T10:22:34;100864.16;;;24.19;52.53
4528;BME280;62320;51.520;6.818;2023-07-16T10:32:37;100880.94;;;24.18;52.69
4528;BME280;62320;51.520;6.818;2023-07-16T10:42:41;100893.75;;;24.26;52.38
4528;BME280;62320;51.520;6.818;2023-07-16T10:52:44;100896.03;;;24.32;52.14
4528;BME280;62320;51.520;6.818;2023-07-16T11:02:46;100905.16;;;24.26;52.68
4528;BME280;62320;51.520;6.818;2023-07-16T11:12:52;100911.63;;;24.21;51.20
4528;BME280;62320;51.520;6.818;2023-07-16T11:22:58;100913.50;;;24.01;52.25
4528;BME280;62320;51.520;6.818;2023-07-16T11:33:01;100911.19;;;23.95;50.19
4528;BME280;62320;51.520;6.818;2023-07-16T11:43:12;100925.69;;;24.05;51.54
4528;BME280;62320;51.520;6.818;2023-07-16T11:53:13;100924.22;;;24.16;53.05
4528;BME280;62320;51.520;6.818;2023-07-16T12:03:15;100926.47;;;24.23;52.03
4528;BME280;62320;51.520;6.818;2023-07-16T12:13:16;100926.25;;;24.10;52.64
4528;BME280;62320;51.520;6.818;2023-07-16T12:23:18;100932.38;;;24.28;52.60
4528;BME280;62320;51.520;6.818;2023-07-16T12:33:20;100942.78;;;24.47;50.76
4528;BME280;62320;51.520;6.818;2023-07-16T12:43:21;100958.13;;;24.40;52.70
4528;BME280;62320;51.520;6.818;2023-07-16T12:53:24;100962.84;;;24.51;51.05
4528;BME280;62320;51.520;6.818;2023-07-16T13:03:25;100959.94;;;24.55;52.02
4528;BME280;62320;51.520;6.818;2023-07-16T13:13:27;100956.38;;;24.72;51.43
4528;BME280;62320;51.520;6.818;2023-07-16T13:23:28;100961.13;;;24.65;52.09
4528;BME280;62320;51.520;6.818;2023-07-16T13:33:30;100958.28;;;24.86;50.94
4528;BME280;62320;51.520;6.818;2023-07-16T13:43:32;100960.34;;;24.81;51.02
4528;BME280;62320;51.520;6.818;2023-07-16T13:53:33;100953.59;;;24.91;50.15
4528;BME280;62320;51.520;6.818;2023-07-16T14:03:35;100949.31;;;24.88;49.45
4528;BME280;62320;51.520;6.818;2023-07-16T14:13:37;100950.91;;;25.06;48.23
4528;BME280;62320;51.520;6.818;2023-07-16T14:23:38;100945.47;;;25.09;50.60
4528;BME280;62320;51.520;6.818;2023-07-16T14:33:40;100955.34;;;25.21;47.73
4528;BME280;62320;51.520;6.818;2023-07-16T14:43:41;100939.75;;;25.17;46.88
4528;BME280;62320;51.520;6.818;2023-07-16T14:53:42;100950.06;;;25.21;47.29
4528;BME280;62320;51.520;6.818;2023-07-16T15:03:44;100955.91;;;25.26;47.41
4528;BME280;62320;51.520;6.818;2023-07-16T15:13:46;100935.97;;;25.21;46.56
4528;BME280;62320;51.520;6.818;2023-07-16T15:23:48;100932.63;;;25.17;48.09
4528;BME280;62320;51.520;6.818;2023-07-16T15:33:49;100937.44;;;25.11;46.70
4528;BME280;62320;51.520;6.818;2023-07-16T15:43:51;100946.06;;;25.14;47.31
4528;BME280;62320;51.520;6.818;2023-07-16T15:53:53;100943.22;;;25.17;45.81
4528;BME280;62320;51.520;6.818;2023-07-16T16:03:55;100941.97;;;25.09;47.16
4528;BME280;62320;51.520;6.818;2023-07-16T16:13:57;100949.28;;;25.04;46.78
4528;BME280;62320;51.520;6.818;2023-07-16T16:23:59;100929.59;;;25.09;47.43
4528;BME280;62320;51.520;6.818;2023-07-16T16:34:02;100921.13;;;25.18;46.47
4528;BME280;62320;51.520;6.818;2023-07-16T16:44:04;100928.56;;;25.12;47.22
4528;BME280;62320;51.520;6.818;2023-07-16T16:54:06;100928.38;;;24.99;45.89
4528;BME280;62320;51.520;6.818;2023-07-16T17:04:07;100935.06;;;24.91;47.45
4528;BME280;62320;51.520;6.818;2023-07-16T17:14:09;100938.72;;;24.72;47.30
4528;BME280;62320;51.520;6.818;2023-07-16T17:24:10;100947.00;;;24.66;47.23
4528;BME280;62320;51.520;6.818;2023-07-16T17:34:12;100959.88;;;24.57;47.77
4528;BME280;62320;51.520;6.818;2023-07-16T17:44:14;100963.88;;;24.48;47.61
4528;BME280;62320;51.520;6.818;2023-07-16T17:54:15;100967.84;;;24.40;47.39
4528;BME280;62320;51.520;6.818;2023-07-16T18:04:17;100981.50;;;24.32;47.46
4528;BME280;62320;51.520;6.818;2023-07-16T18:14:20;100970.16;;;24.13;48.09
4528;BME280;62320;51.520;6.818;2023-07-16T18:24:22;100967.00;;;24.06;48.53
4528;BME280;62320;51.520;6.818;2023-07-16T18:34:23;100980.22;;;24.06;48.25
4528;BME280;62320;51.520;6.818;2023-07-16T18:44:25;100977.00;;;24.00;51.27
4528;BME280;62320;51.520;6.818;2023-07-16T18:54:26;100979.44;;;23.70;54.26
4528;BME280;62320;51.520;6.818;2023-07-16T19:04:28;100983.22;;;23.48;55.93
4528;BME280;62320;51.520;6.818;2023-07-16T19:14:29;100986.09;;;23.43;55.42
4528;BME280;62320;51.520;6.818;2023-07-16T19:24:31;101000.00;;;23.28;56.32
4528;BME280;62320;51.520;6.818;2023-07-16T19:34:34;101013.47;;;23.22;55.05
4528;BME280;62320;51.520;6.818;2023-07-16T19:44:36;101017.88;;;23.04;57.04
4528;BME280;62320;51.520;6.818;2023-07-16T19:54:38;101022.50;;;22.99;56.14
4528;BME280;62320;51.520;6.818;2023-07-16T20:04:39;101035.28;;;22.90;57.16
4528;BME280;62320;51.520;6.818;2023-07-16T20:14:41;101050.59;;;22.82;57.11
4528;BME280;62320;51.520;6.818;2023-07-16T20:24:42;101050.22;;;22.70;56.79
4528;BME280;62320;51.520;6.818;2023-07-16T20:34:44;101046.16;;;22.63;57.35
4528;BME280;62320;51.520;6.818;2023-07-16T20:55:12;101061.09;;;22.43;57.57
4528;BME280;62320;51.520;6.818;2023-07-16T21:05:15;101054.00;;;22.25;56.81
4528;BME280;62320;51.520;6.818;2023-07-16T21:15:17;101048.28;;;22.15;57.13
4528;BME280;62320;51.520;6.818;2023-07-16T21:25:18;101051.31;;;22.06;56.62
4528;BME280;62320;51.520;6.818;2023-07-16T21:35:21;101044.19;;;21.88;57.86
4528;BME280;62320;51.520;6.818;2023-07-16T21:45:23;101058.22;;;21.67;59.29
4528;BME280;62320;51.520;6.818;2023-07-16T21:55:25;101050.31;;;21.45;59.69
4528;BME280;62320;51.520;6.818;2023-07-16T22:05:27;101050.94;;;21.30;59.86
4528;BME280;62320;51.520;6.818;2023-07-16T22:15:30;101051.34;;;21.19;58.96
4528;BME280;62320;51.520;6.818;2023-07-16T22:25:32;101075.34;;;21.12;61.49
4528;BME280;62320;51.520;6.818;2023-07-16T22:35:34;101068.25;;;21.14;59.15
4528;BME280;62320;51.520;6.818;2023-07-16T22:45:35;101067.47;;;21.10;60.26
4528;BME280;62320;51.520;6.818;2023-07-16T22:55:38;101036.66;;;20.91;64.10
4528;BME280;62320;51.520;6.818;2023-07-16T23:05:40;101056.22;;;20.84;61.84
4528;BME280;62320;51.520;6.818;2023-07-16T23:15:42;101055.06;;;20.68;62.41
4528;BME280;62320;51.520;6.818;2023-07-16T23:25:43;101053.28;;;20.45;64.31
4528;BME280;62320;51.520;6.818;2023-07-16T23:35:45;101059.09;;;20.30;64.21
4528;BME280;62320;51.520;6.818;2023-07-16T23:45:47;101072.84;;;20.12;66.47
4528;BME280;62320;51.520;6.818;2023-07-16T23:55:49;101098.63;;;19.99;65.45
